sensor_id;sensor_type;location;lat;lon;timestamp;P1;durP1;ratioP1;P2;durP2;ratioP2
77522;SDS011;66637;-29.628;-49.938;2023-06-19T00:05:37;2.03;;;1.50;;
77522;SDS011;66637;-29.628;-49.938;2023-06-19T00:08:11;3.13;;;1.40;;
77522;SDS011;66637;-29.628;-49.938;2023-06-19T00:11:09;2.08;;;1.30;;
77522;SDS011;66637;-29.628;-49.938;2023-06-19T00:14:28;2.40;;;1.65;;
77522;SDS011;66637;-29.628;-49.938;2023-06-19T00:17:14;3.22;;;1.70;;
77522;SDS011;66637;-29.628;-49.938;2023-06-19T00:20:12;3.00;;;1.60;;
77522;SDS011;66637;-29.628;-49.938;2023-06-19T00:23:02;3.17;;;1.70;;
77522;SDS011;66637;-29.628;-49.938;2023-06-19T00:26:02;2.90;;;1.70;;
77522;SDS011;66637;-29.628;-49.938;2023-06-19T00:29:12;4.78;;;2.35;;
77522;SDS011;66637;-29.628;-49.938;2023-06-19T00:36:32;2.72;;;1.88;;
77522;SDS011;66637;-29.628;-49.938;2023-06-19T00:43:27;3.45;;;1.30;;
77522;SDS011;66637;-29.628;-49.938;2023-06-19T00:51:17;4.55;;;2.45;;
77522;SDS011;66637;-29.628;-49.938;2023-06-19T00:54:29;2.60;;;1.73;;
77522;SDS011;66637;-29.628;-49.938;2023-06-19T00:57:21;3.22;;;1.50;;
77522;SDS011;66637;-29.628;-49.938;2023-06-19T01:00:09;3.38;;;1.25;;
77522;SDS011;66637;-29.628;-49.938;2023-06-19T01:03:27;1.90;;;1.05;;
77522;SDS011;66637;-29.628;-49.938;2023-06-19T01:06:46;7.47;;;1.80;;
77522;SDS011;66637;-29.628;-49.938;2023-06-19T01:09:34;2.97;;;1.35;;
77522;SDS011;66637;-29.628;-49.938;2023-06-19T01:12:20;3.15;;;1.25;;
77522;SDS011;66637;-29.628;-49.938;2023-06-19T01:15:03;1.45;;;0.88;;
77522;SDS011;66637;-29.628;-49.938;2023-06-19T01:18:27;2.15;;;1.40;;
77522;SDS011;66637;-29.628;-49.938;2023-06-19T01:21:27;2.63;;;1.35;;
77522;SDS011;66637;-29.628;-49.938;2023-06-19T01:24:13;3.28;;;1.40;;
77522;SDS011;66637;-29.628;-49.938;2023-06-19T01:27:04;1.58;;;0.90;;
77522;SDS011;66637;-29.628;-49.938;2023-06-19T01:30:42;1.42;;;0.73;;
77522;SDS011;66637;-29.628;-49.938;2023-06-19T01:33:36;1.83;;;0.60;;
77522;SDS011;66637;-29.628;-49.938;2023-06-19T01:36:11;2.08;;;0.60;;
77522;SDS011;66637;-29.628;-49.938;2023-06-19T01:39:18;1.98;;;0.60;;
77522;SDS011;66637;-29.628;-49.938;2023-06-19T01:42:21;1.70;;;0.60;;
77522;SDS011;66637;-29.628;-49.938;2023-06-19T01:45:28;1.23;;;0.60;;
77522;SDS011;66637;-29.628;-49.938;2023-06-19T01:48:16;1.70;;;0.60;;
77522;SDS011;66637;-29.628;-49.938;2023-06-19T01:51:29;1.00;;;0.60;;
77522;SDS011;66637;-29.628;-49.938;2023-06-19T01:54:04;1.70;;;0.65;;
77522;SDS011;66637;-29.628;-49.938;2023-06-19T02:00:25;0.88;;;0.70;;
77522;SDS011;66637;-29.628;-49.938;2023-06-19T02:03:01;3.92;;;0.77;;
77522;SDS011;66637;-29.628;-49.938;2023-06-19T02:06:01;0.68;;;0.40;;
77522;SDS011;66637;-29.628;-49.938;2023-06-19T02:09:05;1.08;;;0.50;;
77522;SDS011;66637;-29.628;-49.938;2023-06-19T02:11:53;0.90;;;0.57;;
77522;SDS011;66637;-29.628;-49.938;2023-06-19T02:14:54;1.38;;;0.50;;
77522;SDS011;66637;-29.628;-49.938;2023-06-19T02:17:54;0.80;;;0.50;;
77522;SDS011;66637;-29.628;-49.938;2023-06-19T02:21:00;2.15;;;0.65;;
77522;SDS011;66637;-29.628;-49.938;2023-06-19T02:27:43;3.15;;;1.38;;
77522;SDS011;66637;-29.628;-49.938;2023-06-19T02:30:47;2.75;;;1.60;;
77522;SDS011;66637;-29.628;-49.938;2023-06-19T02:33:52;4.97;;;2.80;;
77522;SDS011;66637;-29.628;-49.938;2023-06-19T02:36:54;3.88;;;2.03;;
77522;SDS011;66637;-29.628;-49.938;2023-06-19T02:39:44;2.50;;;1.90;;
77522;SDS011;66637;-29.628;-49.938;2023-06-19T02:42:26;4.07;;;2.65;;
77522;SDS011;66637;-29.628;-49.938;2023-06-19T02:44:58;6.80;;;3.60;;
77522;SDS011;66637;-29.628;-49.938;2023-06-19T02:47:33;8.40;;;4.60;;
77522;SDS011;66637;-29.628;-49.938;2023-06-19T02:50:06;7.38;;;4.53;;
77522;SDS011;66637;-29.628;-49.938;2023-06-19T02:52:54;7.05;;;4.45;;
77522;SDS011;66637;-29.628;-49.938;2023-06-19T02:55:24;8.02;;;5.40;;
77522;SDS011;66637;-29.628;-49.938;2023-06-19T02:57:56;6.72;;;4.90;;
77522;SDS011;66637;-29.628;-49.938;2023-06-19T03:00:27;5.90;;;4.03;;
77522;SDS011;66637;-29.628;-49.938;2023-06-19T03:02:59;4.53;;;3.30;;
77522;SDS011;66637;-29.628;-49.938;2023-06-19T03:05:33;5.20;;;3.03;;
77522;SDS011;66637;-29.628;-49.938;2023-06-19T03:12:00;5.90;;;2.70;;
77522;SDS011;66637;-29.628;-49.938;2023-06-19T03:14:57;3.15;;;2.72;;
77522;SDS011;66637;-29.628;-49.938;2023-06-19T03:17:53;3.55;;;2.33;;
77522;SDS011;66637;-29.628;-49.938;2023-06-19T03:20:49;4.68;;;2.60;;
77522;SDS011;66637;-29.628;-49.938;2023-06-19T03:23:39;3.40;;;2.47;;
77522;SDS011;66637;-29.628;-49.938;2023-06-19T03:26:34;3.20;;;2.30;;
77522;SDS011;66637;-29.628;-49.938;2023-06-19T03:29:53;3.38;;;2.65;;
77522;SDS011;66637;-29.628;-49.938;2023-06-19T03:32:51;4.68;;;2.70;;
77522;SDS011;66637;-29.628;-49.938;2023-06-19T03:35:48;3.00;;;2.55;;
77522;SDS011;66637;-29.628;-49.938;2023-06-19T03:39:02;3.80;;;2.65;;
77522;SDS011;66637;-29.628;-49.938;2023-06-19T03:42:08;3.67;;;2.47;;
77522;SDS011;66637;-29.628;-49.938;2023-06-19T03:44:58;3.53;;;2.75;;
77522;SDS011;66637;-29.628;-49.938;2023-06-19T03:47:29;2.85;;;2.42;;
77522;SDS011;66637;-29.628;-49.938;2023-06-19T03:50:01;3.80;;;2.30;;
77522;SDS011;66637;-29.628;-49.938;2023-06-19T03:55:44;4.50;;;2.50;;
77522;SDS011;66637;-29.628;-49.938;2023-06-19T03:58:15;2.85;;;2.30;;
77522;SDS011;66637;-29.628;-49.938;2023-06-19T04:00:45;2.95;;;2.47;;
77522;SDS011;66637;-29.628;-49.938;2023-06-19T04:03:17;3.30;;;2.33;;
77522;SDS011;66637;-29.628;-49.938;2023-06-19T04:05:50;3.70;;;2.53;;
77522;SDS011;66637;-29.628;-49.938;2023-06-19T04:08:41;3.42;;;2.50;;
77522;SDS011;66637;-29.628;-49.938;2023-06-19T04:11:30;3.80;;;2.70;;
77522;SDS011;66637;-29.628;-49.938;2023-06-19T04:14:32;4.70;;;3.10;;
77522;SDS011;66637;-29.628;-49.938;2023-06-19T04:17:30;7.32;;;3.85;;
77522;SDS011;66637;-29.628;-49.938;2023-06-19T04:20:27;4.78;;;2.72;;
77522;SDS011;66637;-29.628;-49.938;2023-06-19T04:23:04;6.10;;;3.03;;
77522;SDS011;66637;-29.628;-49.938;2023-06-19T04:25:45;3.92;;;2.45;;
77522;SDS011;66637;-29.628;-49.938;2023-06-19T04:29:08;5.10;;;2.53;;
77522;SDS011;66637;-29.628;-49.938;2023-06-19T04:32:20;4.13;;;2.50;;
77522;SDS011;66637;-29.628;-49.938;2023-06-19T04:35:05;4.35;;;2.58;;
77522;SDS011;66637;-29.628;-49.938;2023-06-19T04:37:53;2.90;;;2.20;;
77522;SDS011;66637;-29.628;-49.938;2023-06-19T04:41:01;4.68;;;2.75;;
77522;SDS011;66637;-29.628;-49.938;2023-06-19T04:43:50;3.03;;;2.10;;
77522;SDS011;66637;-29.628;-49.938;2023-06-19T04:49:48;3.08;;;2.17;;
77522;SDS011;66637;-29.628;-49.938;2023-06-19T04:52:42;4.03;;;2.30;;
77522;SDS011;66637;-29.628;-49.938;2023-06-19T04:55:43;2.67;;;2.20;;
77522;SDS011;66637;-29.628;-49.938;2023-06-19T05:05:36;2.85;;;1.95;;
77522;SDS011;66637;-29.628;-49.938;2023-06-19T05:08:39;3.03;;;2.40;;
77522;SDS011;66637;-29.628;-49.938;2023-06-19T05:12:16;3.90;;;2.20;;
77522;SDS011;66637;-29.628;-49.938;2023-06-19T05:15:16;3.10;;;2.17;;
77522;SDS011;66637;-29.628;-49.938;2023-06-19T05:18:37;2.92;;;2.10;;
77522;SDS011;66637;-29.628;-49.938;2023-06-19T05:21:32;3.08;;;2.30;;
77522;SDS011;66637;-29.628;-49.938;2023-06-19T05:24:33;2.97;;;2.30;;
77522;SDS011;66637;-29.628;-49.938;2023-06-19T05:27:42;5.10;;;2.30;;
77522;SDS011;66637;-29.628;-49.938;2023-06-19T05:30:34;3.20;;;2.20;;
77522;SDS011;66637;-29.628;-49.938;2023-06-19T05:33:24;2.60;;;2.10;;
77522;SDS011;66637;-29.628;-49.938;2023-06-19T05:36:21;3.00;;;2.00;;
77522;SDS011;66637;-29.628;-49.938;2023-06-19T05:39:08;2.63;;;2.20;;
77522;SDS011;66637;-29.628;-49.938;2023-06-19T05:41:39;3.33;;;2.13;;
77522;SDS011;66637;-29.628;-49.938;2023-06-19T05:44:09;4.72;;;2.30;;
77522;SDS011;66637;-29.628;-49.938;2023-06-19T05:46:50;2.55;;;2.17;;
77522;SDS011;66637;-29.628;-49.938;2023-06-19T05:49:20;2.38;;;2.05;;
77522;SDS011;66637;-29.628;-49.938;2023-06-19T05:54:21;3.45;;;2.25;;
77522;SDS011;66637;-29.628;-49.938;2023-06-19T05:56:52;3.17;;;2.10;;
77522;SDS011;66637;-29.628;-49.938;2023-06-19T05:59:23;5.13;;;2.38;;
77522;SDS011;66637;-29.628;-49.938;2023-06-19T06:01:54;3.00;;;2.22;;
77522;SDS011;66637;-29.628;-49.938;2023-06-19T06:04:26;4.05;;;2.30;;
77522;SDS011;66637;-29.628;-49.938;2023-06-19T06:06:57;2.67;;;2.05;;
77522;SDS011;66637;-29.628;-49.938;2023-06-19T06:09:47;4.05;;;2.30;;
77522;SDS011;66637;-29.628;-49.938;2023-06-19T06:13:01;3.05;;;2.20;;
77522;SDS011;66637;-29.628;-49.938;2023-06-19T06:15:54;3.50;;;2.25;;
77522;SDS011;66637;-29.628;-49.938;2023-06-19T06:18:42;3.03;;;2.00;;
77522;SDS011;66637;-29.628;-49.938;2023-06-19T06:21:47;3.45;;;2.45;;
77522;SDS011;66637;-29.628;-49.938;2023-06-19T06:27:28;2.92;;;2.60;;
77522;SDS011;66637;-29.628;-49.938;2023-06-19T06:30:15;2.90;;;2.03;;
77522;SDS011;66637;-29.628;-49.938;2023-06-19T06:33:01;3.13;;;2.30;;
77522;SDS011;66637;-29.628;-49.938;2023-06-19T06:35:53;2.50;;;1.92;;
77522;SDS011;66637;-29.628;-49.938;2023-06-19T06:38:58;2.67;;;2.20;;
77522;SDS011;66637;-29.628;-49.938;2023-06-19T06:41:28;2.88;;;2.03;;
77522;SDS011;66637;-29.628;-49.938;2023-06-19T06:44:00;5.60;;;2.10;;
77522;SDS011;66637;-29.628;-49.938;2023-06-19T06:46:30;4.35;;;2.30;;
77522;SDS011;66637;-29.628;-49.938;2023-06-19T06:49:01;2.85;;;2.10;;
77522;SDS011;66637;-29.628;-49.938;2023-06-19T06:51:56;3.55;;;2.03;;
77522;SDS011;66637;-29.628;-49.938;2023-06-19T06:54:42;4.53;;;2.40;;
77522;SDS011;66637;-29.628;-49.938;2023-06-19T06:57:50;5.82;;;2.28;;
77522;SDS011;66637;-29.628;-49.938;2023-06-19T07:00:53;3.03;;;1.90;;
77522;SDS011;66637;-29.628;-49.938;2023-06-19T07:03:37;2.50;;;1.98;;
77522;SDS011;66637;-29.628;-49.938;2023-06-19T07:06:19;2.70;;;2.10;;
77522;SDS011;66637;-29.628;-49.938;2023-06-19T07:09:33;3.13;;;2.10;;
77522;SDS011;66637;-29.628;-49.938;2023-06-19T07:12:47;4.05;;;1.92;;
77522;SDS011;66637;-29.628;-49.938;2023-06-19T07:15:56;4.18;;;2.30;;
77522;SDS011;66637;-29.628;-49.938;2023-06-19T07:18:51;3.38;;;1.90;;
77522;SDS011;66637;-29.628;-49.938;2023-06-19T07:21:31;3.40;;;2.05;;
77522;SDS011;66637;-29.628;-49.938;2023-06-19T07:24:02;3.65;;;1.80;;
77522;SDS011;66637;-29.628;-49.938;2023-06-19T07:26:34;2.83;;;1.95;;
77522;SDS011;66637;-29.628;-49.938;2023-06-19T07:29:05;2.78;;;1.80;;
77522;SDS011;66637;-29.628;-49.938;2023-06-19T07:31:35;2.58;;;1.88;;
77522;SDS011;66637;-29.628;-49.938;2023-06-19T07:34:06;2.50;;;1.98;;
77522;SDS011;66637;-29.628;-49.938;2023-06-19T07:36:36;5.25;;;2.30;;
77522;SDS011;66637;-29.628;-49.938;2023-06-19T07:39:07;3.85;;;2.15;;
77522;SDS011;66637;-29.628;-49.938;2023-06-19T07:41:37;4.05;;;2.00;;
77522;SDS011;66637;-29.628;-49.938;2023-06-19T07:44:14;2.67;;;2.20;;
77522;SDS011;66637;-29.628;-49.938;2023-06-19T07:46:48;2.78;;;1.95;;
77522;SDS011;66637;-29.628;-49.938;2023-06-19T07:49:19;2.83;;;2.00;;
77522;SDS011;66637;-29.628;-49.938;2023-06-19T07:51:50;3.28;;;1.85;;
77522;SDS011;66637;-29.628;-49.938;2023-06-19T07:58:04;3.63;;;1.83;;
77522;SDS011;66637;-29.628;-49.938;2023-06-19T08:03:04;3.25;;;1.65;;
77522;SDS011;66637;-29.628;-49.938;2023-06-19T08:05:35;3.28;;;1.83;;
77522;SDS011;66637;-29.628;-49.938;2023-06-19T08:08:06;2.15;;;1.70;;
77522;SDS011;66637;-29.628;-49.938;2023-06-19T08:13:37;1.70;;;1.58;;
77522;SDS011;66637;-29.628;-49.938;2023-06-19T08:16:07;2.97;;;1.90;;
77522;SDS011;66637;-29.628;-49.938;2023-06-19T08:18:40;4.88;;;2.03;;
77522;SDS011;66637;-29.628;-49.938;2023-06-19T08:21:12;5.50;;;1.88;;
77522;SDS011;66637;-29.628;-49.938;2023-06-19T08:23:43;3.15;;;1.80;;
77522;SDS011;66637;-29.628;-49.938;2023-06-19T08:26:14;2.42;;;1.70;;
77522;SDS011;66637;-29.628;-49.938;2023-06-19T08:28:45;3.05;;;1.70;;
77522;SDS011;66637;-29.628;-49.938;2023-06-19T08:31:16;3.72;;;2.30;;
77522;SDS011;66637;-29.628;-49.938;2023-06-19T08:33:47;3.65;;;2.00;;
77522;SDS011;66637;-29.628;-49.938;2023-06-19T08:36:27;2.20;;;1.80;;
77522;SDS011;66637;-29.628;-49.938;2023-06-19T08:39:38;2.13;;;1.92;;
77522;SDS011;66637;-29.628;-49.938;2023-06-19T08:42:32;2.83;;;1.73;;
77522;SDS011;66637;-29.628;-49.938;2023-06-19T08:45:38;2.88;;;1.88;;
77522;SDS011;66637;-29.628;-49.938;2023-06-19T08:48:20;4.00;;;1.90;;
77522;SDS011;66637;-29.628;-49.938;2023-06-19T08:51:02;2.83;;;1.83;;
77522;SDS011;66637;-29.628;-49.938;2023-06-19T08:54:09;2.40;;;1.60;;
77522;SDS011;66637;-29.628;-49.938;2023-06-19T08:56:43;2.00;;;1.63;;
77522;SDS011;66637;-29.628;-49.938;2023-06-19T08:59:25;2.30;;;1.70;;
77522;SDS011;66637;-29.628;-49.938;2023-06-19T09:02:15;3.80;;;1.67;;
77522;SDS011;66637;-29.628;-49.938;2023-06-19T09:10:36;3.13;;;1.55;;
77522;SDS011;66637;-29.628;-49.938;2023-06-19T09:13:07;2.90;;;1.70;;
77522;SDS011;66637;-29.628;-49.938;2023-06-19T09:15:38;2.72;;;1.50;;
77522;SDS011;66637;-29.628;-49.938;2023-06-19T09:18:20;2.30;;;1.33;;
77522;SDS011;66637;-29.628;-49.938;2023-06-19T09:20:52;2.28;;;1.55;;
77522;SDS011;66637;-29.628;-49.938;2023-06-19T09:23:24;3.03;;;1.50;;
77522;SDS011;66637;-29.628;-49.938;2023-06-19T09:25:58;2.20;;;1.67;;
77522;SDS011;66637;-29.628;-49.938;2023-06-19T09:28:33;2.25;;;1.70;;
77522;SDS011;66637;-29.628;-49.938;2023-06-19T09:31:04;2.55;;;1.77;;
77522;SDS011;66637;-29.628;-49.938;2023-06-19T09:33:35;2.17;;;1.42;;
77522;SDS011;66637;-29.628;-49.938;2023-06-19T09:36:06;3.72;;;1.70;;
77522;SDS011;66637;-29.628;-49.938;2023-06-19T09:38:38;2.30;;;1.50;;
77522;SDS011;66637;-29.628;-49.938;2023-06-19T09:41:12;2.78;;;1.63;;
77522;SDS011;66637;-29.628;-49.938;2023-06-19T09:43:44;2.10;;;1.70;;
77522;SDS011;66637;-29.628;-49.938;2023-06-19T09:46:19;3.35;;;1.58;;
77522;SDS011;66637;-29.628;-49.938;2023-06-19T09:48:51;1.88;;;1.65;;
77522;SDS011;66637;-29.628;-49.938;2023-06-19T09:51:32;2.53;;;1.40;;
77522;SDS011;66637;-29.628;-49.938;2023-06-19T09:54:07;2.33;;;1.83;;
77522;SDS011;66637;-29.628;-49.938;2023-06-19T09:56:39;3.85;;;1.60;;
77522;SDS011;66637;-29.628;-49.938;2023-06-19T09:59:09;2.70;;;1.60;;
77522;SDS011;66637;-29.628;-49.938;2023-06-19T10:01:42;1.95;;;1.55;;
77522;SDS011;66637;-29.628;-49.938;2023-06-19T10:04:14;1.98;;;1.52;;
77522;SDS011;66637;-29.628;-49.938;2023-06-19T10:06:47;2.70;;;1.65;;
77522;SDS011;66637;-29.628;-49.938;2023-06-19T10:09:32;1.77;;;1.60;;
77522;SDS011;66637;-29.628;-49.938;2023-06-19T10:12:42;1.95;;;1.40;;
77522;SDS011;66637;-29.628;-49.938;2023-06-19T10:21:06;2.10;;;1.70;;
77522;SDS011;66637;-29.628;-49.938;2023-06-19T10:24:13;1.98;;;1.60;;
77522;SDS011;66637;-29.628;-49.938;2023-06-19T10:27:05;3.90;;;1.63;;
77522;SDS011;66637;-29.628;-49.938;2023-06-19T10:29:42;2.90;;;1.90;;
77522;SDS011;66637;-29.628;-49.938;2023-06-19T10:32:34;1.92;;;1.52;;
77522;SDS011;66637;-29.628;-49.938;2023-06-19T10:35:16;2.22;;;1.70;;
77522;SDS011;66637;-29.628;-49.938;2023-06-19T10:38:01;2.20;;;1.90;;
77522;SDS011;66637;-29.628;-49.938;2023-06-19T10:40:46;4.63;;;1.88;;
77522;SDS011;66637;-29.628;-49.938;2023-06-19T10:43:26;2.85;;;1.90;;
77522;SDS011;66637;-29.628;-49.938;2023-06-19T10:46:13;2.20;;;1.80;;
77522;SDS011;66637;-29.628;-49.938;2023-06-19T10:48:52;4.78;;;2.97;;
77522;SDS011;66637;-29.628;-49.938;2023-06-19T10:51:58;4.15;;;2.22;;
77522;SDS011;66637;-29.628;-49.938;2023-06-19T10:54:56;6.35;;;4.72;;
77522;SDS011;66637;-29.628;-49.938;2023-06-19T10:57:53;13.55;;;10.73;;
77522;SDS011;66637;-29.628;-49.938;2023-06-19T11:00:45;9.38;;;8.13;;
77522;SDS011;66637;-29.628;-49.938;2023-06-19T11:03:46;5.60;;;4.35;;
77522;SDS011;66637;-29.628;-49.938;2023-06-19T11:06:37;3.45;;;2.58;;
77522;SDS011;66637;-29.628;-49.938;2023-06-19T11:09:46;3.42;;;2.20;;
77522;SDS011;66637;-29.628;-49.938;2023-06-19T11:12:56;3.08;;;1.60;;
77522;SDS011;66637;-29.628;-49.938;2023-06-19T11:16:05;1.60;;;1.40;;
77522;SDS011;66637;-29.628;-49.938;2023-06-19T11:19:01;2.28;;;1.85;;
77522;SDS011;66637;-29.628;-49.938;2023-06-19T11:21:59;3.38;;;1.85;;
77522;SDS011;66637;-29.628;-49.938;2023-06-19T11:24:45;3.40;;;1.92;;
77522;SDS011;66637;-29.628;-49.938;2023-06-19T11:27:53;3.60;;;2.22;;
77522;SDS011;66637;-29.628;-49.938;2023-06-19T11:30:57;3.50;;;2.13;;
77522;SDS011;66637;-29.628;-49.938;2023-06-19T11:34:08;4.10;;;2.20;;
77522;SDS011;66637;-29.628;-49.938;2023-06-19T11:36:56;6.82;;;2.50;;
77522;SDS011;66637;-29.628;-49.938;2023-06-19T11:40:04;3.47;;;2.67;;
77522;SDS011;66637;-29.628;-49.938;2023-06-19T11:42:57;5.20;;;2.40;;
77522;SDS011;66637;-29.628;-49.938;2023-06-19T11:45:50;3.50;;;2.00;;
77522;SDS011;66637;-29.628;-49.938;2023-06-19T11:48:38;2.33;;;1.92;;
77522;SDS011;66637;-29.628;-49.938;2023-06-19T11:51:35;4.15;;;2.15;;
77522;SDS011;66637;-29.628;-49.938;2023-06-19T11:54:27;4.13;;;2.28;;
77522;SDS011;66637;-29.628;-49.938;2023-06-19T11:57:34;2.20;;;1.95;;
77522;SDS011;66637;-29.628;-49.938;2023-06-19T12:00:22;2.15;;;1.90;;
77522;SDS011;66637;-29.628;-49.938;2023-06-19T12:03:04;2.58;;;1.65;;
77522;SDS011;66637;-29.628;-49.938;2023-06-19T12:06:16;2.30;;;1.90;;
77522;SDS011;66637;-29.628;-49.938;2023-06-19T12:09:04;4.22;;;1.90;;
77522;SDS011;66637;-29.628;-49.938;2023-06-19T12:11:58;3.10;;;1.60;;
77522;SDS011;66637;-29.628;-49.938;2023-06-19T12:14:32;2.95;;;1.80;;
77522;SDS011;66637;-29.628;-49.938;2023-06-19T12:17:39;3.33;;;1.77;;
77522;SDS011;66637;-29.628;-49.938;2023-06-19T12:20:33;2.50;;;2.20;;
77522;SDS011;66637;-29.628;-49.938;2023-06-19T12:23:27;4.15;;;2.33;;
77522;SDS011;66637;-29.628;-49.938;2023-06-19T12:26:09;11.18;;;3.20;;
77522;SDS011;66637;-29.628;-49.938;2023-06-19T12:29:00;14.15;;;3.70;;
77522;SDS011;66637;-29.628;-49.938;2023-06-19T12:31:43;17.35;;;4.30;;
77522;SDS011;66637;-29.628;-49.938;2023-06-19T12:35:10;31.02;;;5.45;;
77522;SDS011;66637;-29.628;-49.938;2023-06-19T12:38:01;27.55;;;4.93;;
77522;SDS011;66637;-29.628;-49.938;2023-06-19T12:40:57;27.65;;;5.65;;
77522;SDS011;66637;-29.628;-49.938;2023-06-19T12:43:33;26.75;;;4.82;;
77522;SDS011;66637;-29.628;-49.938;2023-06-19T12:46:51;25.80;;;5.10;;
77522;SDS011;66637;-29.628;-49.938;2023-06-19T12:49:32;36.97;;;6.15;;
77522;SDS011;66637;-29.628;-49.938;2023-06-19T12:52:22;17.10;;;3.92;;
77522;SDS011;66637;-29.628;-49.938;2023-06-19T12:58:31;28.38;;;4.45;;
77522;SDS011;66637;-29.628;-49.938;2023-06-19T13:01:49;26.45;;;4.22;;
77522;SDS011;66637;-29.628;-49.938;2023-06-19T13:04:44;23.20;;;6.30;;
77522;SDS011;66637;-29.628;-49.938;2023-06-19T13:07:50;29.15;;;5.22;;
77522;SDS011;66637;-29.628;-49.938;2023-06-19T13:10:36;22.55;;;5.13;;
77522;SDS011;66637;-29.628;-49.938;2023-06-19T13:13:16;6.28;;;2.83;;
77522;SDS011;66637;-29.628;-49.938;2023-06-19T13:16:15;7.68;;;2.60;;
77522;SDS011;66637;-29.628;-49.938;2023-06-19T13:22:23;3.45;;;2.30;;
77522;SDS011;66637;-29.628;-49.938;2023-06-19T13:25:32;4.45;;;2.30;;
77522;SDS011;66637;-29.628;-49.938;2023-06-19T13:28:30;3.70;;;2.10;;
77522;SDS011;66637;-29.628;-49.938;2023-06-19T13:31:18;3.25;;;2.10;;
77522;SDS011;66637;-29.628;-49.938;2023-06-19T13:34:08;3.72;;;1.80;;
77522;SDS011;66637;-29.628;-49.938;2023-06-19T13:36:41;2.70;;;2.05;;
77522;SDS011;66637;-29.628;-49.938;2023-06-19T13:39:53;6.35;;;2.40;;
77522;SDS011;66637;-29.628;-49.938;2023-06-19T13:42:48;4.05;;;2.15;;
77522;SDS011;66637;-29.628;-49.938;2023-06-19T13:45:32;9.38;;;2.78;;
77522;SDS011;66637;-29.628;-49.938;2023-06-19T13:48:22;11.40;;;2.80;;
77522;SDS011;66637;-29.628;-49.938;2023-06-19T13:51:29;4.20;;;2.42;;
77522;SDS011;66637;-29.628;-49.938;2023-06-19T13:54:10;3.88;;;1.92;;
77522;SDS011;66637;-29.628;-49.938;2023-06-19T13:56:58;4.05;;;1.90;;
77522;SDS011;66637;-29.628;-49.938;2023-06-19T13:59:33;6.18;;;2.70;;
77522;SDS011;66637;-29.628;-49.938;2023-06-19T14:02:39;13.57;;;3.03;;
77522;SDS011;66637;-29.628;-49.938;2023-06-19T14:05:48;22.17;;;4.15;;
77522;SDS011;66637;-29.628;-49.938;2023-06-19T14:08:37;21.33;;;3.58;;
77522;SDS011;66637;-29.628;-49.938;2023-06-19T14:12:09;21.55;;;3.85;;
77522;SDS011;66637;-29.628;-49.938;2023-06-19T14:14:57;19.15;;;4.30;;
77522;SDS011;66637;-29.628;-49.938;2023-06-19T14:17:34;27.75;;;5.47;;
77522;SDS011;66637;-29.628;-49.938;2023-06-19T14:20:44;8.20;;;2.00;;
77522;SDS011;66637;-29.628;-49.938;2023-06-19T14:23:31;9.63;;;2.70;;
77522;SDS011;66637;-29.628;-49.938;2023-06-19T14:26:36;27.50;;;4.03;;
77522;SDS011;66637;-29.628;-49.938;2023-06-19T14:29:22;13.18;;;2.88;;
77522;SDS011;66637;-29.628;-49.938;2023-06-19T14:32:08;29.40;;;4.85;;
77522;SDS011;66637;-29.628;-49.938;2023-06-19T14:34:45;19.40;;;4.45;;
77522;SDS011;66637;-29.628;-49.938;2023-06-19T14:37:43;25.27;;;4.25;;
77522;SDS011;66637;-29.628;-49.938;2023-06-19T14:40:21;17.58;;;3.97;;
77522;SDS011;66637;-29.628;-49.938;2023-06-19T14:43:23;22.40;;;4.43;;
77522;SDS011;66637;-29.628;-49.938;2023-06-19T14:46:02;19.48;;;4.15;;
77522;SDS011;66637;-29.628;-49.938;2023-06-19T14:49:01;24.58;;;4.88;;
77522;SDS011;66637;-29.628;-49.938;2023-06-19T14:51:55;27.60;;;4.80;;
77522;SDS011;66637;-29.628;-49.938;2023-06-19T14:54:44;14.93;;;3.60;;
77522;SDS011;66637;-29.628;-49.938;2023-06-19T15:01:10;14.30;;;3.20;;
77522;SDS011;66637;-29.628;-49.938;2023-06-19T15:04:01;17.88;;;4.20;;
77522;SDS011;66637;-29.628;-49.938;2023-06-19T15:07:18;19.20;;;4.00;;
77522;SDS011;66637;-29.628;-49.938;2023-06-19T15:09:53;25.30;;;4.30;;
77522;SDS011;66637;-29.628;-49.938;2023-06-19T15:12:47;24.00;;;4.72;;
77522;SDS011;66637;-29.628;-49.938;2023-06-19T15:15:26;19.88;;;4.15;;
77522;SDS011;66637;-29.628;-49.938;2023-06-19T15:18:03;21.45;;;4.72;;
77522;SDS011;66637;-29.628;-49.938;2023-06-19T15:20:40;30.92;;;6.03;;
77522;SDS011;66637;-29.628;-49.938;2023-06-19T15:23:38;21.38;;;4.30;;
77522;SDS011;66637;-29.628;-49.938;2023-06-19T15:26:31;26.23;;;5.20;;
77522;SDS011;66637;-29.628;-49.938;2023-06-19T15:29:11;26.95;;;5.28;;
77522;SDS011;66637;-29.628;-49.938;2023-06-19T15:32:06;31.10;;;5.30;;
77522;SDS011;66637;-29.628;-49.938;2023-06-19T15:34:52;36.53;;;5.57;;
77522;SDS011;66637;-29.628;-49.938;2023-06-19T15:37:50;33.47;;;6.50;;
77522;SDS011;66637;-29.628;-49.938;2023-06-19T15:41:01;25.90;;;5.45;;
77522;SDS011;66637;-29.628;-49.938;2023-06-19T15:43:48;28.45;;;5.97;;
77522;SDS011;66637;-29.628;-49.938;2023-06-19T15:46:25;36.92;;;6.68;;
77522;SDS011;66637;-29.628;-49.938;2023-06-19T15:49:21;32.17;;;5.68;;
77522;SDS011;66637;-29.628;-49.938;2023-06-19T15:52:34;29.58;;;5.30;;
77522;SDS011;66637;-29.628;-49.938;2023-06-19T15:55:09;21.23;;;5.10;;
77522;SDS011;66637;-29.628;-49.938;2023-06-19T15:57:49;37.10;;;6.03;;
77522;SDS011;66637;-29.628;-49.938;2023-06-19T16:00:25;20.33;;;4.00;;
77522;SDS011;66637;-29.628;-49.938;2023-06-19T16:03:14;28.05;;;5.05;;
77522;SDS011;66637;-29.628;-49.938;2023-06-19T16:05:46;24.67;;;4.68;;
77522;SDS011;66637;-29.628;-49.938;2023-06-19T16:11:54;21.50;;;4.53;;
77522;SDS011;66637;-29.628;-49.938;2023-06-19T16:14:52;17.75;;;4.25;;
77522;SDS011;66637;-29.628;-49.938;2023-06-19T16:18:00;25.52;;;5.05;;
77522;SDS011;66637;-29.628;-49.938;2023-06-19T16:20:44;28.23;;;5.75;;
77522;SDS011;66637;-29.628;-49.938;2023-06-19T16:23:36;28.52;;;5.32;;
77522;SDS011;66637;-29.628;-49.938;2023-06-19T16:26:25;35.38;;;6.38;;
77522;SDS011;66637;-29.628;-49.938;2023-06-19T16:29:41;19.80;;;4.93;;
77522;SDS011;66637;-29.628;-49.938;2023-06-19T16:32:41;19.27;;;5.35;;
77522;SDS011;66637;-29.628;-49.938;2023-06-19T16:36:04;21.95;;;5.82;;
77522;SDS011;66637;-29.628;-49.938;2023-06-19T16:38:51;26.48;;;5.55;;
77522;SDS011;66637;-29.628;-49.938;2023-06-19T16:42:04;28.60;;;5.43;;
77522;SDS011;66637;-29.628;-49.938;2023-06-19T16:44:52;28.17;;;6.35;;
77522;SDS011;66637;-29.628;-49.938;2023-06-19T16:47:45;32.42;;;5.40;;
77522;SDS011;66637;-29.628;-49.938;2023-06-19T16:50:35;22.00;;;4.57;;
77522;SDS011;66637;-29.628;-49.938;2023-06-19T16:53:31;36.92;;;6.93;;
77522;SDS011;66637;-29.628;-49.938;2023-06-19T16:56:12;34.22;;;7.03;;
77522;SDS011;66637;-29.628;-49.938;2023-06-19T16:59:25;20.73;;;5.00;;
77522;SDS011;66637;-29.628;-49.938;2023-06-19T17:02:26;30.45;;;6.25;;
77522;SDS011;66637;-29.628;-49.938;2023-06-19T17:07:55;29.00;;;5.18;;
77522;SDS011;66637;-29.628;-49.938;2023-06-19T17:10:39;20.88;;;4.65;;
77522;SDS011;66637;-29.628;-49.938;2023-06-19T17:14:00;37.78;;;6.20;;
77522;SDS011;66637;-29.628;-49.938;2023-06-19T17:16:34;43.97;;;7.00;;
77522;SDS011;66637;-29.628;-49.938;2023-06-19T17:19:14;21.70;;;5.10;;
77522;SDS011;66637;-29.628;-49.938;2023-06-19T17:21:48;30.33;;;6.10;;
77522;SDS011;66637;-29.628;-49.938;2023-06-19T17:24:43;28.55;;;5.68;;
77522;SDS011;66637;-29.628;-49.938;2023-06-19T17:27:25;27.05;;;5.32;;
77522;SDS011;66637;-29.628;-49.938;2023-06-19T17:30:05;38.78;;;7.07;;
77522;SDS011;66637;-29.628;-49.938;2023-06-19T17:32:45;27.05;;;4.70;;
77522;SDS011;66637;-29.628;-49.938;2023-06-19T17:35:27;41.53;;;7.18;;
77522;SDS011;66637;-29.628;-49.938;2023-06-19T17:38:02;32.33;;;5.82;;